sensor_id;sensor_type;location;lat;lon;timestamp;temperature;humidity
19292;DHT22;9779;51.756;7.450;2022-08-11T00:00:08;22.60;79.10
19292;DHT22;9779;51.756;7.450;2022-08-11T00:02:41;22.60;79.80
19292;DHT22;9779;51.756;7.450;2022-08-11T00:05:11;22.50;80.90
19292;DHT22;9779;51.756;7.450;2022-08-11T00:10:12;22.40;81.60
19292;DHT22;9779;51.756;7.450;2022-08-11T00:12:38;22.40;83.00
19292;DHT22;9779;51.756;7.450;2022-08-11T00:15:04;22.30;83.20
19292;DHT22;9779;51.756;7.450;2022-08-11T00:17:32;22.30;83.30
19292;DHT22;9779;51.756;7.450;2022-08-11T00:20:05;22.90;83.00
19292;DHT22;9779;51.756;7.450;2022-08-11T00:22:33;22.20;84.00
19292;DHT22;9779;51.756;7.450;2022-08-11T00:25:07;22.10;84.30
19292;DHT22;9779;51.756;7.450;2022-08-11T00:27:36;22.10;85.10
19292;DHT22;9779;51.756;7.450;2022-08-11T00:30:04;22.00;85.40
19292;DHT22;9779;51.756;7.450;2022-08-11T00:32:31;22.00;85.20
19292;DHT22;9779;51.756;7.450;2022-08-11T00:34:59;21.90;86.10
19292;DHT22;9779;51.756;7.450;2022-08-11T00:37:26;21.90;86.00
19292;DHT22;9779;51.756;7.450;2022-08-11T00:39:53;21.80;86.60
19292;DHT22;9779;51.756;7.450;2022-08-11T00:45:25;21.80;87.60
19292;DHT22;9779;51.756;7.450;2022-08-11T00:50:28;21.70;89.00
19292;DHT22;9779;51.756;7.450;2022-08-11T00:53:29;21.60;89.40
19292;DHT22;9779;51.756;7.450;2022-08-11T01:08:29;21.40;90.50
19292;DHT22;9779;51.756;7.450;2022-08-11T01:11:26;21.30;90.50
19292;DHT22;9779;51.756;7.450;2022-08-11T01:22:54;21.20;91.00
19292;DHT22;9779;51.756;7.450;2022-08-11T01:25:52;21.10;91.30
19292;DHT22;9779;51.756;7.450;2022-08-11T01:45:52;20.70;95.60
19292;DHT22;9779;51.756;7.450;2022-08-11T01:48:41;20.70;97.80
19292;DHT22;9779;51.756;7.450;2022-08-11T01:51:22;20.70;94.20
19292;DHT22;9779;51.756;7.450;2022-08-11T01:57:20;20.60;95.20
19292;DHT22;9779;51.756;7.450;2022-08-11T01:59:53;20.50;95.80
19292;DHT22;9779;51.756;7.450;2022-08-11T02:02:22;20.50;96.30
19292;DHT22;9779;51.756;7.450;2022-08-11T02:08:20;20.30;97.50
19292;DHT22;9779;51.756;7.450;2022-08-11T02:16:47;20.20;98.60
19292;DHT22;9779;51.756;7.450;2022-08-11T02:31:28;19.90;99.90
19292;DHT22;9779;51.756;7.450;2022-08-11T02:34:20;19.90;99.90
19292;DHT22;9779;51.756;7.450;2022-08-11T02:40:10;19.80;99.90
19292;DHT22;9779;51.756;7.450;2022-08-11T02:57:01;19.50;99.90
19292;DHT22;9779;51.756;7.450;2022-08-11T02:59:52;19.50;99.90
19292;DHT22;9779;51.756;7.450;2022-08-11T03:05:16;19.40;99.90
19292;DHT22;9779;51.756;7.450;2022-08-11T03:08:26;19.40;99.90
19292;DHT22;9779;51.756;7.450;2022-08-11T03:16:52;19.30;99.90
19292;DHT22;9779;51.756;7.450;2022-08-11T03:22:21;19.20;99.90
19292;DHT22;9779;51.756;7.450;2022-08-11T03:25:00;19.20;99.90
19292;DHT22;9779;51.756;7.450;2022-08-11T03:28:05;19.20;99.90
19292;DHT22;9779;51.756;7.450;2022-08-11T03:31:28;19.00;99.90
19292;DHT22;9779;51.756;7.450;2022-08-11T03:33:28;19.00;99.90
19292;DHT22;9779;51.756;7.450;2022-08-11T03:38:59;19.00;99.90
19292;DHT22;9779;51.756;7.450;2022-08-11T03:41:42;19.00;99.90
19292;DHT22;9779;51.756;7.450;2022-08-11T03:44:17;18.90;99.90
19292;DHT22;9779;51.756;7.450;2022-08-11T03:53:00;18.80;99.90
19292;DHT22;9779;51.756;7.450;2022-08-11T04:01:07;21.10;99.90
19292;DHT22;9779;51.756;7.450;2022-08-11T04:21:02;18.50;99.90
19292;DHT22;9779;51.756;7.450;2022-08-11T04:29:26;18.40;99.90
19292;DHT22;9779;51.756;7.450;2022-08-11T04:44:32;19.10;99.90
19292;DHT22;9779;51.756;7.450;2022-08-11T04:58:51;19.10;99.90
19292;DHT22;9779;51.756;7.450;2022-08-11T05:13:45;19.40;99.90
19292;DHT22;9779;51.756;7.450;2022-08-11T05:16:34;19.50;99.90
19292;DHT22;9779;51.756;7.450;2022-08-11T05:19:24;19.50;99.90
19292;DHT22;9779;51.756;7.450;2022-08-11T05:22:11;19.50;99.90
19292;DHT22;9779;51.756;7.450;2022-08-11T05:25:14;19.60;99.90
19292;DHT22;9779;51.756;7.450;2022-08-11T05:28:05;19.60;99.90
19292;DHT22;9779;51.756;7.450;2022-08-11T05:30:59;19.70;99.90
19292;DHT22;9779;51.756;7.450;2022-08-11T05:33:53;19.70;99.90
19292;DHT22;9779;51.756;7.450;2022-08-11T05:36:51;19.80;99.90
19292;DHT22;9779;51.756;7.450;2022-08-11T05:39:22;19.80;99.90
19292;DHT22;9779;51.756;7.450;2022-08-11T05:42:07;19.80;99.90
19292;DHT22;9779;51.756;7.450;2022-08-11T05:45:03;19.80;99.90
19292;DHT22;9779;51.756;7.450;2022-08-11T05:47:49;19.80;99.90
19292;DHT22;9779;51.756;7.450;2022-08-11T05:50:34;19.90;99.90
19292;DHT22;9779;51.756;7.450;2022-08-11T05:53:18;19.90;99.90
19292;DHT22;9779;51.756;7.450;2022-08-11T05:56:04;19.90;99.90
19292;DHT22;9779;51.756;7.450;2022-08-11T05:58:47;19.90;99.90
19292;DHT22;9779;51.756;7.450;2022-08-11T06:01:24;20.00;99.90
19292;DHT22;9779;51.756;7.450;2022-08-11T06:03:51;20.00;99.90
19292;DHT22;9779;51.756;7.450;2022-08-11T06:06:37;20.10;99.90
19292;DHT22;9779;51.756;7.450;2022-08-11T06:09:06;20.20;99.90
19292;DHT22;9779;51.756;7.450;2022-08-11T06:11:37;20.20;99.90
19292;DHT22;9779;51.756;7.450;2022-08-11T06:14:05;20.20;99.90
19292;DHT22;9779;51.756;7.450;2022-08-11T06:16:31;20.20;99.90
19292;DHT22;9779;51.756;7.450;2022-08-11T06:18:57;20.20;99.90
19292;DHT22;9779;51.756;7.450;2022-08-11T06:21:24;20.20;99.90
19292;DHT22;9779;51.756;7.450;2022-08-11T06:23:51;20.30;99.90
19292;DHT22;9779;51.756;7.450;2022-08-11T06:26:17;20.30;99.90
19292;DHT22;9779;51.756;7.450;2022-08-11T06:28:45;20.40;99.90
19292;DHT22;9779;51.756;7.450;2022-08-11T06:31:20;20.40;99.90
19292;DHT22;9779;51.756;7.450;2022-08-11T06:41:34;20.40;99.90
19292;DHT22;9779;51.756;7.450;2022-08-11T06:44:16;20.40;99.90
19292;DHT22;9779;51.756;7.450;2022-08-11T06:46:51;20.50;99.90
19292;DHT22;9779;51.756;7.450;2022-08-11T06:49:30;20.50;99.90
19292;DHT22;9779;51.756;7.450;2022-08-11T06:52:15;20.50;99.90
19292;DHT22;9779;51.756;7.450;2022-08-11T06:54:50;20.60;99.90
19292;DHT22;9779;51.756;7.450;2022-08-11T06:57:28;20.60;99.90
19292;DHT22;9779;51.756;7.450;2022-08-11T07:00:16;20.70;99.90
19292;DHT22;9779;51.756;7.450;2022-08-11T07:03:06;20.70;99.90
19292;DHT22;9779;51.756;7.450;2022-08-11T07:08:19;20.80;99.90
19292;DHT22;9779;51.756;7.450;2022-08-11T07:14:04;20.90;99.90
19292;DHT22;9779;51.756;7.450;2022-08-11T07:16:50;21.00;99.90
19292;DHT22;9779;51.756;7.450;2022-08-11T07:19:27;21.00;99.90
19292;DHT22;9779;51.756;7.450;2022-08-11T07:22:13;21.00;99.90
19292;DHT22;9779;51.756;7.450;2022-08-11T07:25:02;21.10;99.90
19292;DHT22;9779;51.756;7.450;2022-08-11T07:27:55;21.10;99.90
19292;DHT22;9779;51.756;7.450;2022-08-11T07:30:40;21.20;99.90
19292;DHT22;9779;51.756;7.450;2022-08-11T07:33:07;21.20;99.90
19292;DHT22;9779;51.756;7.450;2022-08-11T07:35:42;21.30;99.90
19292;DHT22;9779;51.756;7.450;2022-08-11T07:38:15;21.40;99.90
19292;DHT22;9779;51.756;7.450;2022-08-11T07:40:44;21.50;99.90
19292;DHT22;9779;51.756;7.450;2022-08-11T07:43:11;21.50;99.90
19292;DHT22;9779;51.756;7.450;2022-08-11T07:45:41;21.60;99.90
19292;DHT22;9779;51.756;7.450;2022-08-11T07:48:26;21.70;99.90
19292;DHT22;9779;51.756;7.450;2022-08-11T07:51:16;21.70;99.90
19292;DHT22;9779;51.756;7.450;2022-08-11T07:54:02;21.80;99.90
19292;DHT22;9779;51.756;7.450;2022-08-11T07:56:31;21.90;99.90
19292;DHT22;9779;51.756;7.450;2022-08-11T07:58:57;22.10;99.90
19292;DHT22;9779;51.756;7.450;2022-08-11T08:01:41;22.10;99.90
19292;DHT22;9779;51.756;7.450;2022-08-11T08:04:25;22.20;99.90
19292;DHT22;9779;51.756;7.450;2022-08-11T08:07:10;22.30;99.90
19292;DHT22;9779;51.756;7.450;2022-08-11T08:09:54;22.40;99.90
19292;DHT22;9779;51.756;7.450;2022-08-11T08:12:39;22.50;99.90
19292;DHT22;9779;51.756;7.450;2022-08-11T08:15:24;22.60;99.90
19292;DHT22;9779;51.756;7.450;2022-08-11T08:18:08;22.80;99.90
19292;DHT22;9779;51.756;7.450;2022-08-11T08:20:48;22.90;99.90
19292;DHT22;9779;51.756;7.450;2022-08-11T08:23:15;23.10;99.90
19292;DHT22;9779;51.756;7.450;2022-08-11T08:25:43;23.20;99.90
19292;DHT22;9779;51.756;7.450;2022-08-11T08:28:13;23.30;99.90
19292;DHT22;9779;51.756;7.450;2022-08-11T08:30:41;23.20;99.90
19292;DHT22;9779;51.756;7.450;2022-08-11T08:33:20;23.50;98.80
19292;DHT22;9779;51.756;7.450;2022-08-11T08:35:49;23.70;99.90
19292;DHT22;9779;51.756;7.450;2022-08-11T08:38:15;23.60;99.20
19292;DHT22;9779;51.756;7.450;2022-08-11T08:40:42;24.90;99.90
19292;DHT22;9779;51.756;7.450;2022-08-11T08:43:14;24.00;97.80
19292;DHT22;9779;51.756;7.450;2022-08-11T08:45:42;24.20;99.30
19292;DHT22;9779;51.756;7.450;2022-08-11T08:48:16;24.30;97.10
19292;DHT22;9779;51.756;7.450;2022-08-11T08:50:53;24.40;98.00
19292;DHT22;9779;51.756;7.450;2022-08-11T08:53:42;24.50;97.60
19292;DHT22;9779;51.756;7.450;2022-08-11T08:56:10;24.60;96.60
19292;DHT22;9779;51.756;7.450;2022-08-11T08:58:37;24.80;96.20
19292;DHT22;9779;51.756;7.450;2022-08-11T09:01:04;26.00;97.00
19292;DHT22;9779;51.756;7.450;2022-08-11T09:03:35;25.40;97.60
19292;DHT22;9779;51.756;7.450;2022-08-11T09:06:02;25.00;95.30
19292;DHT22;9779;51.756;7.450;2022-08-11T09:08:30;25.30;93.10
19292;DHT22;9779;51.756;7.450;2022-08-11T09:10:56;25.50;92.90
19292;DHT22;9779;51.756;7.450;2022-08-11T09:13:41;25.60;92.30
19292;DHT22;9779;51.756;7.450;2022-08-11T09:16:09;25.70;92.60
19292;DHT22;9779;51.756;7.450;2022-08-11T09:18:36;25.90;92.00
19292;DHT22;9779;51.756;7.450;2022-08-11T09:21:03;26.00;90.80
19292;DHT22;9779;51.756;7.450;2022-08-11T09:23:29;26.00;90.90
19292;DHT22;9779;51.756;7.450;2022-08-11T09:29:02;26.40;89.00
19292;DHT22;9779;51.756;7.450;2022-08-11T09:31:32;26.60;87.60
19292;DHT22;9779;51.756;7.450;2022-08-11T09:33:59;26.70;83.40
19292;DHT22;9779;51.756;7.450;2022-08-11T09:36:25;26.80;87.10
19292;DHT22;9779;51.756;7.450;2022-08-11T09:39:11;27.10;85.80
19292;DHT22;9779;51.756;7.450;2022-08-11T09:41:56;27.30;80.70
19292;DHT22;9779;51.756;7.450;2022-08-11T09:44:23;27.50;78.60
19292;DHT22;9779;51.756;7.450;2022-08-11T09:47:08;27.60;78.50
19292;DHT22;9779;51.756;7.450;2022-08-11T09:49:40;27.70;78.30
19292;DHT22;9779;51.756;7.450;2022-08-11T09:52:06;27.80;76.60
19292;DHT22;9779;51.756;7.450;2022-08-11T09:54:34;27.90;76.10
19292;DHT22;9779;51.756;7.450;2022-08-11T09:57:00;28.00;73.10
19292;DHT22;9779;51.756;7.450;2022-08-11T09:59:45;28.00;71.30
19292;DHT22;9779;51.756;7.450;2022-08-11T10:02:11;28.20;72.20
19292;DHT22;9779;51.756;7.450;2022-08-11T10:04:42;28.40;67.90
19292;DHT22;9779;51.756;7.450;2022-08-11T10:07:13;28.40;68.60
19292;DHT22;9779;51.756;7.450;2022-08-11T10:09:48;28.60;66.90
19292;DHT22;9779;51.756;7.450;2022-08-11T10:12:33;28.70;64.30
19292;DHT22;9779;51.756;7.450;2022-08-11T10:15:03;28.90;64.20
19292;DHT22;9779;51.756;7.450;2022-08-11T10:17:56;28.90;67.80
19292;DHT22;9779;51.756;7.450;2022-08-11T10:20:41;29.10;65.40
19292;DHT22;9779;51.756;7.450;2022-08-11T10:23:11;29.30;66.50
19292;DHT22;9779;51.756;7.450;2022-08-11T10:25:56;29.40;63.20
19292;DHT22;9779;51.756;7.450;2022-08-11T10:28:40;29.60;62.90
19292;DHT22;9779;51.756;7.450;2022-08-11T10:31:08;29.80;60.00
19292;DHT22;9779;51.756;7.450;2022-08-11T10:33:53;30.10;59.30
19292;DHT22;9779;51.756;7.450;2022-08-11T10:36:26;30.10;54.90
19292;DHT22;9779;51.756;7.450;2022-08-11T10:38:54;30.20;57.10
19292;DHT22;9779;51.756;7.450;2022-08-11T10:41:20;30.30;58.00
19292;DHT22;9779;51.756;7.450;2022-08-11T10:44:07;30.70;55.60
19292;DHT22;9779;51.756;7.450;2022-08-11T10:46:34;30.80;54.00
19292;DHT22;9779;51.756;7.450;2022-08-11T10:49:19;31.10;52.80
19292;DHT22;9779;51.756;7.450;2022-08-11T10:51:45;31.10;52.20
19292;DHT22;9779;51.756;7.450;2022-08-11T10:54:32;31.10;52.20
19292;DHT22;9779;51.756;7.450;2022-08-11T10:57:18;31.30;51.30
19292;DHT22;9779;51.756;7.450;2022-08-11T11:00:04;31.50;51.10
19292;DHT22;9779;51.756;7.450;2022-08-11T11:02:31;31.50;49.40
19292;DHT22;9779;51.756;7.450;2022-08-11T11:07:49;31.60;49.10
19292;DHT22;9779;51.756;7.450;2022-08-11T11:10:17;31.80;49.90
19292;DHT22;9779;51.756;7.450;2022-08-11T11:12:45;31.70;49.20
19292;DHT22;9779;51.756;7.450;2022-08-11T11:15:34;32.00;73.60
19292;DHT22;9779;51.756;7.450;2022-08-11T11:18:21;32.10;47.70
19292;DHT22;9779;51.756;7.450;2022-08-11T11:21:06;32.10;45.50
19292;DHT22;9779;51.756;7.450;2022-08-11T11:24:21;32.10;46.90
19292;DHT22;9779;51.756;7.450;2022-08-11T11:37:00;33.00;40.20
19292;DHT22;9779;51.756;7.450;2022-08-11T11:39:27;33.10;43.20
19292;DHT22;9779;51.756;7.450;2022-08-11T11:41:56;33.40;41.00
19292;DHT22;9779;51.756;7.450;2022-08-11T11:44:23;33.70;40.50
19292;DHT22;9779;51.756;7.450;2022-08-11T11:46:50;33.60;40.90
19292;DHT22;9779;51.756;7.450;2022-08-11T11:49:18;33.80;41.70
19292;DHT22;9779;51.756;7.450;2022-08-11T11:51:49;33.60;37.90
19292;DHT22;9779;51.756;7.450;2022-08-11T11:54:26;33.90;40.60
19292;DHT22;9779;51.756;7.450;2022-08-11T11:56:53;34.10;39.20
19292;DHT22;9779;51.756;7.450;2022-08-11T11:59:21;34.20;39.50
19292;DHT22;9779;51.756;7.450;2022-08-11T12:02:12;34.30;40.70
19292;DHT22;9779;51.756;7.450;2022-08-11T12:04:40;34.50;36.70
19292;DHT22;9779;51.756;7.450;2022-08-11T12:07:08;34.80;37.30
19292;DHT22;9779;51.756;7.450;2022-08-11T12:09:54;34.70;36.50
19292;DHT22;9779;51.756;7.450;2022-08-11T12:12:20;34.70;37.20
19292;DHT22;9779;51.756;7.450;2022-08-11T12:15:06;34.70;36.40
19292;DHT22;9779;51.756;7.450;2022-08-11T12:17:33;34.90;33.70
19292;DHT22;9779;51.756;7.450;2022-08-11T12:20:00;35.10;37.00
19292;DHT22;9779;51.756;7.450;2022-08-11T12:22:26;35.20;35.20
19292;DHT22;9779;51.756;7.450;2022-08-11T12:25:10;35.20;33.50
19292;DHT22;9779;51.756;7.450;2022-08-11T12:27:55;35.40;35.20
19292;DHT22;9779;51.756;7.450;2022-08-11T12:30:21;35.60;34.80
19292;DHT22;9779;51.756;7.450;2022-08-11T12:32:47;35.80;35.40
19292;DHT22;9779;51.756;7.450;2022-08-11T12:35:14;36.10;34.40
19292;DHT22;9779;51.756;7.450;2022-08-11T12:37:53;36.20;35.00
19292;DHT22;9779;51.756;7.450;2022-08-11T12:40:24;36.30;33.10
19292;DHT22;9779;51.756;7.450;2022-08-11T12:43:13;36.40;31.50
19292;DHT22;9779;51.756;7.450;2022-08-11T12:46:00;36.50;31.30
19292;DHT22;9779;51.756;7.450;2022-08-11T12:48:32;36.40;31.90
19292;DHT22;9779;51.756;7.450;2022-08-11T12:51:23;36.40;32.50
19292;DHT22;9779;51.756;7.450;2022-08-11T12:54:16;36.30;31.90
19292;DHT22;9779;51.756;7.450;2022-08-11T12:56:47;36.40;31.90
19292;DHT22;9779;51.756;7.450;2022-08-11T12:59:34;36.50;32.30
19292;DHT22;9779;51.756;7.450;2022-08-11T13:02:20;36.70;31.20
19292;DHT22;9779;51.756;7.450;2022-08-11T13:05:07;36.90;30.30
19292;DHT22;9779;51.756;7.450;2022-08-11T13:07:34;36.90;31.10
19292;DHT22;9779;51.756;7.450;2022-08-11T13:10:03;36.80;29.80
19292;DHT22;9779;51.756;7.450;2022-08-11T13:12:29;37.00;30.90
19292;DHT22;9779;51.756;7.450;2022-08-11T13:15:16;36.90;30.00
19292;DHT22;9779;51.756;7.450;2022-08-11T13:17:43;36.70;30.10
19292;DHT22;9779;51.756;7.450;2022-08-11T13:20:10;36.90;29.50
19292;DHT22;9779;51.756;7.450;2022-08-11T13:22:39;36.90;29.70
19292;DHT22;9779;51.756;7.450;2022-08-11T13:25:06;37.10;28.90
19292;DHT22;9779;51.756;7.450;2022-08-11T13:27:34;37.10;30.60
19292;DHT22;9779;51.756;7.450;2022-08-11T13:30:00;37.30;29.70
19292;DHT22;9779;51.756;7.450;2022-08-11T13:32:45;37.40;31.50
19292;DHT22;9779;51.756;7.450;2022-08-11T13:35:12;37.50;28.50
19292;DHT22;9779;51.756;7.450;2022-08-11T13:37:43;37.60;30.90
19292;DHT22;9779;51.756;7.450;2022-08-11T13:40:10;37.70;29.80
19292;DHT22;9779;51.756;7.450;2022-08-11T13:42:37;37.90;29.40
19292;DHT22;9779;51.756;7.450;2022-08-11T13:45:05;37.90;28.30
19292;DHT22;9779;51.756;7.450;2022-08-11T13:47:32;37.90;28.40
19292;DHT22;9779;51.756;7.450;2022-08-11T13:49:58;38.10;29.00
19292;DHT22;9779;51.756;7.450;2022-08-11T13:52:25;37.90;28.10
19292;DHT22;9779;51.756;7.450;2022-08-11T13:54:52;38.00;28.70
19292;DHT22;9779;51.756;7.450;2022-08-11T13:57:19;38.10;28.50
19292;DHT22;9779;51.756;7.450;2022-08-11T13:59:51;38.20;28.50
19292;DHT22;9779;51.756;7.450;2022-08-11T14:02:22;38.10;28.10
19292;DHT22;9779;51.756;7.450;2022-08-11T14:05:02;38.10;27.50
19292;DHT22;9779;51.756;7.450;2022-08-11T14:07:50;38.10;27.80
19292;DHT22;9779;51.756;7.450;2022-08-11T14:10:20;38.30;29.50
19292;DHT22;9779;51.756;7.450;2022-08-11T14:12:52;38.70;27.70
19292;DHT22;9779;51.756;7.450;2022-08-11T14:15:41;38.50;27.10
19292;DHT22;9779;51.756;7.450;2022-08-11T14:18:17;38.40;27.20
19292;DHT22;9779;51.756;7.450;2022-08-11T14:20:43;38.50;27.80
19292;DHT22;9779;51.756;7.450;2022-08-11T14:23:40;38.70;26.30
19292;DHT22;9779;51.756;7.450;2022-08-11T14:26:08;38.90;26.90
19292;DHT22;9779;51.756;7.450;2022-08-11T14:29:15;39.00;26.10
19292;DHT22;9779;51.756;7.450;2022-08-11T14:32:01;38.90;25.20
19292;DHT22;9779;51.756;7.450;2022-08-11T14:34:28;38.60;25.30
19292;DHT22;9779;51.756;7.450;2022-08-11T14:37:01;38.70;26.30
19292;DHT22;9779;51.756;7.450;2022-08-11T14:39:31;38.70;26.10
19292;DHT22;9779;51.756;7.450;2022-08-11T14:42:03;38.60;26.30
19292;DHT22;9779;51.756;7.450;2022-08-11T14:44:50;38.70;26.70
19292;DHT22;9779;51.756;7.450;2022-08-11T14:47:39;39.00;26.60
19292;DHT22;9779;51.756;7.450;2022-08-11T14:50:08;39.10;26.00
19292;DHT22;9779;51.756;7.450;2022-08-11T14:52:36;39.00;25.90
19292;DHT22;9779;51.756;7.450;2022-08-11T14:55:02;39.10;27.10
19292;DHT22;9779;51.756;7.450;2022-08-11T14:57:48;39.10;26.30
19292;DHT22;9779;51.756;7.450;2022-08-11T15:00:15;39.10;26.50
19292;DHT22;9779;51.756;7.450;2022-08-11T15:02:45;39.10;26.30
19292;DHT22;9779;51.756;7.450;2022-08-11T15:05:32;39.10;26.10
19292;DHT22;9779;51.756;7.450;2022-08-11T15:07:58;38.80;25.00
19292;DHT22;9779;51.756;7.450;2022-08-11T15:10:24;38.70;24.70
19292;DHT22;9779;51.756;7.450;2022-08-11T15:12:50;38.80;26.00
19292;DHT22;9779;51.756;7.450;2022-08-11T15:15:18;38.90;26.60
19292;DHT22;9779;51.756;7.450;2022-08-11T15:18:05;39.00;24.80
19292;DHT22;9779;51.756;7.450;2022-08-11T15:20:32;39.00;25.80
19292;DHT22;9779;51.756;7.450;2022-08-11T15:23:16;39.00;25.00
19292;DHT22;9779;51.756;7.450;2022-08-11T15:26:13;38.90;25.10
19292;DHT22;9779;51.756;7.450;2022-08-11T15:28:45;38.60;24.70
19292;DHT22;9779;51.756;7.450;2022-08-11T15:31:30;38.80;25.10
19292;DHT22;9779;51.756;7.450;2022-08-11T15:34:12;38.60;25.30
19292;DHT22;9779;51.756;7.450;2022-08-11T15:36:59;38.50;24.40
19292;DHT22;9779;51.756;7.450;2022-08-11T15:39:46;38.70;24.30
19292;DHT22;9779;51.756;7.450;2022-08-11T15:42:44;38.80;24.20
19292;DHT22;9779;51.756;7.450;2022-08-11T15:45:31;38.80;24.30
19292;DHT22;9779;51.756;7.450;2022-08-11T15:48:28;38.90;24.10
19292;DHT22;9779;51.756;7.450;2022-08-11T15:50:57;38.90;25.40
19292;DHT22;9779;51.756;7.450;2022-08-11T15:53:53;38.80;25.20
19292;DHT22;9779;51.756;7.450;2022-08-11T15:56:23;38.90;24.20
19292;DHT22;9779;51.756;7.450;2022-08-11T15:58:51;39.00;26.10
19292;DHT22;9779;51.756;7.450;2022-08-11T16:01:38;39.00;25.80
19292;DHT22;9779;51.756;7.450;2022-08-11T16:04:25;38.80;24.40
19292;DHT22;9779;51.756;7.450;2022-08-11T16:07:15;38.70;24.60
19292;DHT22;9779;51.756;7.450;2022-08-11T16:12:15;38.40;25.70
19292;DHT22;9779;51.756;7.450;2022-08-11T16:14:44;38.30;25.30
19292;DHT22;9779;51.756;7.450;2022-08-11T16:17:44;38.20;24.70
19292;DHT22;9779;51.756;7.450;2022-08-11T16:20:12;38.40;25.50
19292;DHT22;9779;51.756;7.450;2022-08-11T16:22:38;38.40;25.30
19292;DHT22;9779;51.756;7.450;2022-08-11T16:25:10;38.50;24.90
19292;DHT22;9779;51.756;7.450;2022-08-11T16:27:42;38.50;24.50
19292;DHT22;9779;51.756;7.450;2022-08-11T16:30:09;38.40;24.70
19292;DHT22;9779;51.756;7.450;2022-08-11T16:32:38;38.40;26.40
19292;DHT22;9779;51.756;7.450;2022-08-11T16:35:09;38.50;25.10
19292;DHT22;9779;51.756;7.450;2022-08-11T16:37:55;38.40;24.80
19292;DHT22;9779;51.756;7.450;2022-08-11T16:40:41;38.30;25.40
19292;DHT22;9779;51.756;7.450;2022-08-11T16:43:11;38.10;25.00
19292;DHT22;9779;51.756;7.450;2022-08-11T16:45:57;38.20;24.50
19292;DHT22;9779;51.756;7.450;2022-08-11T16:48:45;38.00;23.70
19292;DHT22;9779;51.756;7.450;2022-08-11T16:51:12;37.90;25.20
19292;DHT22;9779;51.756;7.450;2022-08-11T16:53:39;37.80;25.40
19292;DHT22;9779;51.756;7.450;2022-08-11T16:56:06;37.80;25.70
19292;DHT22;9779;51.756;7.450;2022-08-11T16:58:34;37.70;26.90
19292;DHT22;9779;51.756;7.450;2022-08-11T17:01:20;37.80;26.20
19292;DHT22;9779;51.756;7.450;2022-08-11T17:03:52;37.60;26.10
19292;DHT22;9779;51.756;7.450;2022-08-11T17:06:45;37.70;26.50
19292;DHT22;9779;51.756;7.450;2022-08-11T17:09:33;37.60;26.20
19292;DHT22;9779;51.756;7.450;2022-08-11T17:12:20;37.40;25.70
19292;DHT22;9779;51.756;7.450;2022-08-11T17:15:09;37.20;26.40
19292;DHT22;9779;51.756;7.450;2022-08-11T17:17:58;37.10;27.30
19292;DHT22;9779;51.756;7.450;2022-08-11T17:20:26;37.00;27.00
19292;DHT22;9779;51.756;7.450;2022-08-11T17:22:53;36.90;26.30
19292;DHT22;9779;51.756;7.450;2022-08-11T17:25:38;36.80;26.40
19292;DHT22;9779;51.756;7.450;2022-08-11T17:28:05;36.60;26.90
19292;DHT22;9779;51.756;7.450;2022-08-11T17:30:32;36.50;27.20
19292;DHT22;9779;51.756;7.450;2022-08-11T17:33:17;36.30;27.00
19292;DHT22;9779;51.756;7.450;2022-08-11T17:36:02;36.30;28.20
19292;DHT22;9779;51.756;7.450;2022-08-11T17:38:29;36.20;27.70
19292;DHT22;9779;51.756;7.450;2022-08-11T17:40:59;36.00;28.10
19292;DHT22;9779;51.756;7.450;2022-08-11T17:43:45;35.80;27.70
19292;DHT22;9779;51.756;7.450;2022-08-11T17:46:31;35.60;28.30
19292;DHT22;9779;51.756;7.450;2022-08-11T17:49:17;35.60;28.30
19292;DHT22;9779;51.756;7.450;2022-08-11T17:51:46;35.50;28.90
19292;DHT22;9779;51.756;7.450;2022-08-11T17:54:34;35.40;28.80
19292;DHT22;9779;51.756;7.450;2022-08-11T17:57:20;35.30;28.90
19292;DHT22;9779;51.756;7.450;2022-08-11T18:00:05;35.10;29.10
19292;DHT22;9779;51.756;7.450;2022-08-11T18:02:37;35.00;28.90
19292;DHT22;9779;51.756;7.450;2022-08-11T18:05:32;34.90;29.10
19292;DHT22;9779;51.756;7.450;2022-08-11T18:08:02;34.70;29.70
19292;DHT22;9779;51.756;7.450;2022-08-11T18:10:47;34.50;29.90
19292;DHT22;9779;51.756;7.450;2022-08-11T18:13:33;34.30;30.70
19292;DHT22;9779;51.756;7.450;2022-08-11T18:16:19;34.20;30.60
19292;DHT22;9779;51.756;7.450;2022-08-11T18:19:05;34.00;30.70
19292;DHT22;9779;51.756;7.450;2022-08-11T18:21:50;33.80;30.10
19292;DHT22;9779;51.756;7.450;2022-08-11T18:24:42;33.70;31.90
19292;DHT22;9779;51.756;7.450;2022-08-11T18:27:30;33.60;32.10
19292;DHT22;9779;51.756;7.450;2022-08-11T18:30:15;33.40;32.60
19292;DHT22;9779;51.756;7.450;2022-08-11T18:33:01;33.30;32.80
19292;DHT22;9779;51.756;7.450;2022-08-11T18:35:55;33.10;33.20
19292;DHT22;9779;51.756;7.450;2022-08-11T18:38:42;33.00;34.20
19292;DHT22;9779;51.756;7.450;2022-08-11T18:41:28;32.80;33.00
19292;DHT22;9779;51.756;7.450;2022-08-11T18:44:16;32.60;34.30
19292;DHT22;9779;51.756;7.450;2022-08-11T18:47:07;32.50;34.60
19292;DHT22;9779;51.756;7.450;2022-08-11T18:49:54;32.40;35.10
19292;DHT22;9779;51.756;7.450;2022-08-11T18:52:42;32.30;35.10
19292;DHT22;9779;51.756;7.450;2022-08-11T18:55:27;32.20;35.50
19292;DHT22;9779;51.756;7.450;2022-08-11T18:58:14;32.10;35.90
19292;DHT22;9779;51.756;7.450;2022-08-11T19:01:00;32.00;36.60
19292;DHT22;9779;51.756;7.450;2022-08-11T19:03:48;31.90;36.50
19292;DHT22;9779;51.756;7.450;2022-08-11T19:06:33;31.80;37.20
19292;DHT22;9779;51.756;7.450;2022-08-11T19:09:19;31.70;37.10
19292;DHT22;9779;51.756;7.450;2022-08-11T19:12:05;31.50;37.20
19292;DHT22;9779;51.756;7.450;2022-08-11T19:14:52;31.50;37.90
19292;DHT22;9779;51.756;7.450;2022-08-11T19:17:41;31.40;38.10
19292;DHT22;9779;51.756;7.450;2022-08-11T19:20:29;31.30;38.00
19292;DHT22;9779;51.756;7.450;2022-08-11T19:23:16;31.20;38.50
19292;DHT22;9779;51.756;7.450;2022-08-11T19:26:03;31.10;38.40
19292;DHT22;9779;51.756;7.450;2022-08-11T19:28:48;30.90;38.50
19292;DHT22;9779;51.756;7.450;2022-08-11T19:31:34;30.80;38.80
19292;DHT22;9779;51.756;7.450;2022-08-11T19:34:22;30.70;39.50
19292;DHT22;9779;51.756;7.450;2022-08-11T19:37:08;30.60;38.30
19292;DHT22;9779;51.756;7.450;2022-08-11T19:39:54;30.50;40.20
19292;DHT22;9779;51.756;7.450;2022-08-11T19:42:41;30.40;39.80
19292;DHT22;9779;51.756;7.450;2022-08-11T19:45:26;30.30;40.40
19292;DHT22;9779;51.756;7.450;2022-08-11T19:48:11;30.20;40.60
19292;DHT22;9779;51.756;7.450;2022-08-11T19:50:55;30.10;40.10
19292;DHT22;9779;51.756;7.450;2022-08-11T19:53:41;29.90;39.60
19292;DHT22;9779;51.756;7.450;2022-08-11T19:56:27;29.90;40.40
19292;DHT22;9779;51.756;7.450;2022-08-11T19:59:12;28.90;39.70
19292;DHT22;9779;51.756;7.450;2022-08-11T20:01:57;29.70;46.00
19292;DHT22;9779;51.756;7.450;2022-08-11T20:04:41;29.50;39.90
19292;DHT22;9779;51.756;7.450;2022-08-11T20:07:30;29.50;72.20
19292;DHT22;9779;51.756;7.450;2022-08-11T20:10:17;29.40;40.50
19292;DHT22;9779;51.756;7.450;2022-08-11T20:13:05;29.30;40.70
19292;DHT22;9779;51.756;7.450;2022-08-11T20:15:51;29.20;41.00
19292;DHT22;9779;51.756;7.450;2022-08-11T20:18:37;29.20;41.50